createdAt,value
2023-05-14T00:02:25.177Z,55.35
2023-05-14T00:04:52.993Z,57.92
2023-05-14T00:07:20.048Z,60.60
2023-05-14T00:09:50.027Z,70.07
2023-05-14T00:12:17.127Z,57.42
2023-05-14T00:14:44.104Z,58.65
2023-05-14T00:17:11.079Z,57.22
2023-05-14T00:19:41.913Z,59.35
2023-05-14T00:22:09.476Z,61.50
2023-05-14T00:24:36.722Z,58.28
2023-05-14T00:27:04.511Z,60.58
2023-05-14T00:29:31.562Z,57.45
2023-05-14T00:31:58.617Z,60.25
2023-05-14T00:34:25.662Z,60.33
2023-05-14T00:36:52.716Z,60.65
2023-05-14T00:39:20.189Z,61.33
2023-05-14T00:41:47.185Z,61.63
2023-05-14T00:44:14.193Z,64.18
2023-05-14T00:46:41.534Z,63.78
2023-05-14T00:49:09.013Z,66.78
2023-05-14T00:51:36.107Z,59.72
2023-05-14T00:54:03.295Z,69.65
2023-05-14T00:56:30.361Z,58.72
2023-05-14T00:58:57.377Z,61.30
2023-05-14T01:01:24.516Z,66.38
2023-05-14T01:03:53.509Z,67.88
2023-05-14T01:06:29.280Z,60.40
2023-05-14T01:09:18.122Z,66.97
2023-05-14T01:12:06.171Z,68.35
2023-05-14T01:14:45.186Z,68.13
2023-05-14T01:17:15.360Z,65.85
2023-05-14T01:19:44.108Z,62.40
2023-05-14T01:22:12.013Z,65.75
2023-05-14T01:24:39.581Z,67.68
2023-05-14T01:27:13.813Z,60.85
2023-05-14T01:29:45.587Z,64.18
2023-05-14T01:32:13.819Z,63.67
2023-05-14T01:34:42.180Z,59.03
2023-05-14T01:37:12.875Z,65.80
2023-05-14T01:39:41.939Z,66.05
2023-05-14T01:42:09.994Z,62.58
2023-05-14T01:44:37.480Z,69.55
2023-05-14T01:47:05.264Z,68.65
2023-05-14T01:49:32.736Z,59.35
2023-05-14T01:52:00.147Z,64.97
2023-05-14T01:54:27.214Z,60.10
2023-05-14T01:56:54.418Z,59.13
2023-05-14T01:59:21.577Z,62.72
2023-05-14T02:01:48.922Z,60.28
2023-05-14T02:04:16.087Z,60.65
2023-05-14T02:06:43.128Z,61.33
2023-05-14T02:09:10.456Z,71.47
2023-05-14T02:11:37.648Z,64.32
2023-05-14T02:14:04.798Z,62.30
2023-05-14T02:16:31.853Z,65.78
2023-05-14T02:18:59.159Z,56.92
2023-05-14T02:21:26.570Z,54.40
2023-05-14T02:23:53.777Z,56.05
2023-05-14T02:26:21.649Z,60.15
2023-05-14T02:28:48.797Z,61.05
2023-05-14T02:31:17.681Z,58.95
2023-05-14T02:33:45.059Z,54.53
2023-05-14T02:36:12.164Z,63.83
2023-05-14T02:38:39.181Z,55.35
2023-05-14T02:41:06.246Z,56.58
2023-05-14T02:43:33.323Z,57.15
2023-05-14T02:46:00.383Z,62.25
2023-05-14T02:48:27.489Z,64.18
2023-05-14T02:50:54.551Z,58.28
2023-05-14T02:53:21.581Z,57.63
2023-05-14T02:55:48.994Z,56.08
2023-05-14T02:58:16.212Z,61.28
2023-05-14T03:00:43.223Z,61.20
2023-05-14T03:03:10.765Z,58.05
2023-05-14T03:05:38.440Z,63.05
2023-05-14T03:08:05.851Z,66.15
2023-05-14T03:10:33.115Z,57.95
2023-05-14T03:13:00.161Z,66.18
2023-05-14T03:15:27.309Z,59.53
2023-05-14T03:17:54.481Z,62.65
2023-05-14T03:20:23.512Z,61.83
2023-05-14T03:22:50.772Z,59.58
2023-05-14T03:25:18.017Z,63.65
2023-05-14T03:27:45.180Z,62.33
2023-05-14T03:30:12.762Z,59.83
2023-05-14T03:32:40.039Z,61.53
2023-05-14T03:35:08.189Z,61.05
2023-05-14T03:37:35.492Z,60.70
2023-05-14T03:40:02.826Z,60.08
2023-05-14T03:42:30.005Z,61.67
2023-05-14T03:44:57.225Z,64.93
2023-05-14T03:47:24.291Z,57.35
2023-05-14T03:49:51.473Z,57.67
2023-05-14T03:52:18.621Z,57.30
2023-05-14T03:54:45.588Z,64.13
2023-05-14T03:57:12.787Z,63.50
2023-05-14T03:59:39.891Z,57.42
2023-05-14T04:02:07.870Z,56.67
2023-05-14T04:04:35.168Z,58.58
2023-05-14T04:07:02.332Z,62.47
2023-05-14T04:09:29.414Z,57.95
2023-05-14T04:11:56.438Z,59.88
2023-05-14T04:14:23.544Z,56.15
2023-05-14T04:16:50.572Z,60.95
2023-05-14T04:19:18.364Z,58.50
2023-05-14T04:21:45.564Z,53.63
2023-05-14T04:24:12.578Z,53.42
2023-05-14T04:26:39.681Z,55.00
2023-05-14T04:29:06.709Z,52.35
2023-05-14T04:31:34.030Z,56.80
2023-05-14T04:34:01.549Z,59.47
2023-05-14T04:36:28.761Z,52.85
2023-05-14T04:38:56.144Z,51.90
2023-05-14T04:41:23.323Z,50.47
2023-05-14T04:43:50.990Z,51.17
2023-05-14T04:46:18.188Z,58.72
2023-05-14T04:48:45.201Z,53.25
2023-05-14T04:51:12.449Z,50.80
2023-05-14T04:53:39.498Z,51.00
2023-05-14T04:56:06.921Z,51.13
2023-05-14T04:58:35.208Z,49.92
2023-05-14T05:01:05.225Z,50.33
2023-05-14T05:03:32.530Z,48.42
2023-05-14T05:05:59.679Z,50.10
2023-05-14T05:08:27.048Z,45.47
2023-05-14T05:10:54.091Z,46.30
2023-05-14T05:13:21.146Z,51.80
2023-05-14T05:15:48.339Z,45.00
2023-05-14T05:18:15.470Z,46.42
2023-05-14T05:20:42.526Z,41.58
2023-05-14T05:23:09.495Z,51.67
2023-05-14T05:25:36.520Z,45.33
2023-05-14T05:28:03.526Z,44.42
2023-05-14T05:30:30.871Z,45.25
2023-05-14T05:32:58.115Z,50.63
2023-05-14T05:35:25.339Z,48.25
2023-05-14T05:37:52.510Z,45.42
2023-05-14T05:40:19.594Z,43.38
2023-05-14T05:42:46.545Z,48.15
2023-05-14T05:45:13.590Z,44.35
2023-05-14T05:47:41.082Z,44.35
2023-05-14T05:50:08.986Z,41.65
2023-05-14T05:52:36.041Z,44.35
2023-05-14T05:55:03.877Z,42.92
2023-05-14T05:57:31.028Z,45.92
2023-05-14T05:59:58.230Z,58.83
2023-05-14T06:02:25.591Z,53.40
2023-05-14T06:04:53.257Z,55.38
2023-05-14T06:07:20.504Z,61.30
2023-05-14T06:09:47.631Z,45.92
2023-05-14T06:12:14.706Z,53.13
2023-05-14T06:14:41.777Z,54.13
2023-05-14T06:17:08.930Z,54.03
2023-05-14T06:19:36.064Z,49.30
2023-05-14T06:22:03.209Z,55.50
2023-05-14T06:24:30.247Z,44.50
2023-05-14T06:26:57.406Z,48.75
2023-05-14T06:29:25.265Z,50.28
2023-05-14T06:31:52.548Z,47.25
2023-05-14T06:34:19.687Z,48.53
2023-05-14T06:36:46.779Z,49.75
2023-05-14T06:39:13.738Z,45.60
2023-05-14T06:41:40.832Z,54.55
2023-05-14T06:44:07.914Z,49.03
2023-05-14T06:46:35.211Z,43.13
2023-05-14T06:49:02.438Z,40.45
2023-05-14T06:51:29.676Z,42.90
2023-05-14T06:53:56.846Z,42.08
2023-05-14T06:56:23.975Z,42.60
2023-05-14T06:58:51.289Z,44.90
2023-05-14T07:01:18.594Z,45.53
2023-05-14T07:03:45.757Z,45.28
2023-05-14T07:06:13.734Z,44.50
2023-05-14T07:08:41.082Z,44.58
2023-05-14T07:11:10.690Z,42.10
2023-05-14T07:13:37.955Z,43.83
2023-05-14T07:16:05.630Z,44.90
2023-05-14T07:18:33.010Z,49.22
2023-05-14T07:21:00.187Z,43.00
2023-05-14T07:23:27.432Z,44.33
2023-05-14T07:25:54.315Z,44.97
2023-05-14T07:28:21.604Z,43.05
2023-05-14T07:30:48.806Z,43.83
2023-05-14T07:33:15.899Z,45.05
2023-05-14T07:35:43.176Z,43.53
2023-05-14T07:38:10.232Z,43.00
2023-05-14T07:40:37.535Z,47.33
2023-05-14T07:43:04.577Z,48.88
2023-05-14T07:45:31.740Z,44.92
2023-05-14T07:47:59.063Z,44.05
2023-05-14T07:50:26.594Z,46.72
2023-05-14T07:52:53.790Z,49.72
2023-05-14T07:55:21.210Z,48.90
2023-05-14T07:57:48.181Z,48.95
2023-05-14T08:00:16.918Z,52.95
2023-05-14T08:02:45.371Z,45.70
2023-05-14T08:05:12.852Z,51.42
2023-05-14T08:07:40.123Z,56.50
2023-05-14T08:10:08.244Z,56.58
2023-05-14T08:12:35.409Z,52.28
2023-05-14T08:15:02.870Z,53.30
2023-05-14T08:17:30.458Z,55.38
2023-05-14T08:19:57.652Z,57.65
2023-05-14T08:22:24.739Z,56.65
2023-05-14T08:24:51.723Z,47.83
2023-05-14T08:27:18.699Z,47.75
2023-05-14T08:29:45.748Z,44.55
2023-05-14T08:32:22.810Z,42.97
2023-05-14T08:34:52.003Z,45.58
2023-05-14T08:37:19.170Z,43.20
2023-05-14T08:39:46.345Z,42.22
2023-05-14T08:42:15.750Z,41.05
2023-05-14T08:44:51.930Z,43.67
2023-05-14T08:47:21.531Z,45.85
2023-05-14T08:49:55.465Z,41.30
2023-05-14T08:52:23.361Z,37.05
2023-05-14T08:54:52.931Z,42.38
2023-05-14T08:57:21.527Z,45.58
2023-05-14T08:59:48.716Z,36.63
2023-05-14T09:02:17.499Z,35.67
2023-05-14T09:04:45.064Z,38.80
2023-05-14T09:07:12.384Z,39.55
2023-05-14T09:09:39.686Z,41.25
2023-05-14T09:12:07.250Z,33.63
2023-05-14T09:14:34.361Z,35.08
2023-05-14T09:17:01.771Z,42.58
2023-05-14T09:19:28.768Z,40.25
2023-05-14T09:21:59.096Z,40.72
2023-05-14T09:24:29.350Z,41.65
2023-05-14T09:26:58.241Z,44.15
2023-05-14T09:29:32.223Z,40.03
2023-05-14T09:32:02.379Z,42.25
2023-05-14T09:34:32.368Z,46.28
2023-05-14T09:37:01.547Z,41.10
2023-05-14T09:39:29.649Z,39.60
2023-05-14T09:41:56.909Z,42.72
2023-05-14T09:44:24.896Z,40.60
2023-05-14T09:46:53.173Z,41.78
2023-05-14T09:49:20.779Z,38.78
2023-05-14T09:51:49.872Z,43.13
2023-05-14T09:54:17.234Z,40.15
2023-05-14T09:56:44.933Z,40.75
2023-05-14T09:59:12.196Z,41.30
2023-05-14T10:01:42.085Z,40.83
2023-05-14T10:04:11.369Z,42.15
2023-05-14T10:06:40.138Z,40.28
2023-05-14T10:09:16.875Z,41.35
2023-05-14T10:11:45.795Z,42.60
2023-05-14T10:14:31.479Z,41.70
2023-05-14T10:19:26.915Z,39.30
2023-05-14T10:21:57.697Z,45.38
2023-05-14T10:24:26.082Z,44.22
2023-05-14T10:26:53.825Z,42.30
2023-05-14T10:29:31.757Z,38.65
2023-05-14T10:31:58.792Z,40.88
2023-05-14T10:34:38.031Z,37.40
2023-05-14T10:37:26.023Z,36.60
2023-05-14T10:39:57.011Z,36.38
2023-05-14T10:42:43.409Z,39.00
2023-05-14T10:45:12.524Z,37.25
2023-05-14T10:47:42.208Z,39.03
2023-05-14T10:50:11.657Z,36.63
2023-05-14T10:52:40.924Z,35.45
2023-05-14T10:55:08.771Z,33.80
2023-05-14T10:57:38.360Z,38.25
2023-05-14T11:00:10.906Z,34.47
2023-05-14T11:02:45.255Z,33.40
2023-05-14T11:05:17.698Z,38.45
2023-05-14T11:07:50.140Z,38.25
2023-05-14T11:10:22.418Z,32.15
2023-05-14T11:12:51.521Z,34.55
2023-05-14T11:15:23.076Z,36.63
2023-05-14T11:17:54.097Z,38.28
2023-05-14T11:20:21.616Z,37.33
2023-05-14T11:22:51.954Z,35.85
2023-05-14T11:25:19.290Z,35.53
2023-05-14T11:27:47.888Z,32.13
2023-05-14T11:30:19.845Z,36.28
2023-05-14T11:32:48.922Z,36.75
2023-05-14T11:35:17.820Z,33.63
2023-05-14T11:37:54.257Z,30.92
2023-05-14T11:40:21.644Z,32.58
2023-05-14T11:42:53.650Z,30.63
2023-05-14T11:45:27.790Z,31.20
2023-05-14T11:47:55.156Z,30.27
2023-05-14T11:50:25.409Z,34.85
2023-05-14T11:52:57.391Z,31.10
2023-05-14T11:55:24.901Z,26.63
2023-05-14T11:57:52.436Z,27.13
2023-05-14T12:00:22.265Z,33.55
2023-05-14T12:02:50.464Z,30.30
2023-05-14T12:05:18.074Z,30.00
2023-05-14T12:07:46.509Z,28.65
2023-05-14T12:10:14.128Z,38.25
2023-05-14T12:12:41.691Z,31.25
2023-05-14T12:15:17.241Z,28.75
2023-05-14T12:17:52.001Z,28.05
2023-05-14T12:20:19.630Z,28.98
2023-05-14T12:22:46.792Z,28.45
2023-05-14T12:25:14.646Z,27.15
2023-05-14T12:27:44.937Z,28.83
2023-05-14T12:30:21.462Z,25.15
2023-05-14T12:32:52.059Z,25.80
2023-05-14T12:35:23.263Z,25.17
2023-05-14T12:37:50.596Z,27.55
2023-05-14T12:40:20.518Z,27.58
2023-05-14T12:42:47.616Z,23.80
2023-05-14T12:45:14.664Z,29.10
2023-05-14T12:47:41.781Z,25.05
2023-05-14T12:50:09.303Z,22.08
2023-05-14T12:52:39.139Z,27.48
2023-05-14T12:55:09.352Z,24.63
2023-05-14T12:57:38.894Z,22.75
2023-05-14T13:00:08.234Z,27.23
2023-05-14T13:02:43.105Z,26.13
2023-05-14T13:05:12.040Z,26.20
2023-05-14T13:07:39.303Z,25.13
2023-05-14T13:10:07.061Z,25.67
2023-05-14T13:12:34.417Z,24.30
2023-05-14T13:15:01.563Z,22.38
2023-05-14T13:17:28.688Z,26.67
2023-05-14T13:19:55.758Z,24.65
2023-05-14T13:22:22.859Z,25.27
2023-05-14T13:24:50.135Z,23.80
2023-05-14T13:27:18.336Z,22.13
2023-05-14T13:29:45.425Z,24.00
2023-05-14T13:32:12.685Z,26.02
2023-05-14T13:34:39.882Z,22.90
2023-05-14T13:37:07.917Z,21.25
2023-05-14T13:39:34.767Z,24.35
2023-05-14T13:42:01.854Z,21.58
2023-05-14T13:44:29.579Z,19.23
2023-05-14T13:46:57.994Z,21.58
2023-05-14T13:49:25.062Z,23.08
2023-05-14T13:51:52.124Z,22.27
2023-05-14T13:54:19.107Z,27.42
2023-05-14T13:56:46.333Z,19.73
2023-05-14T13:59:13.327Z,22.90
2023-05-14T14:01:40.398Z,24.23
2023-05-14T14:04:07.528Z,21.92
2023-05-14T14:06:34.388Z,20.13
2023-05-14T14:09:01.428Z,18.58
2023-05-14T14:11:28.710Z,23.17
2023-05-14T14:13:55.852Z,20.17
2023-05-14T14:16:23.130Z,20.85
2023-05-14T14:18:50.187Z,19.05
2023-05-14T14:21:18.516Z,20.67
2023-05-14T14:23:49.109Z,23.23
2023-05-14T14:26:16.290Z,18.95
2023-05-14T14:28:43.639Z,17.85
2023-05-14T14:31:11.410Z,17.98
2023-05-14T14:33:38.276Z,17.55
2023-05-14T14:36:05.990Z,18.92
2023-05-14T14:38:33.096Z,19.00
2023-05-14T14:41:01.417Z,18.00
2023-05-14T14:43:28.574Z,16.88
2023-05-14T14:45:56.965Z,24.98
2023-05-14T14:48:28.227Z,20.75
2023-05-14T14:50:55.775Z,20.85
2023-05-14T14:53:23.444Z,18.42
2023-05-14T14:55:51.463Z,16.35
2023-05-14T14:58:19.860Z,18.55
2023-05-14T15:00:47.417Z,19.25
2023-05-14T15:03:15.380Z,18.70
2023-05-14T15:05:42.848Z,21.25
2023-05-14T15:08:10.335Z,24.42
2023-05-14T15:10:38.493Z,18.77
2023-05-14T15:13:06.929Z,22.30
2023-05-14T15:15:35.073Z,24.65
2023-05-14T15:18:03.514Z,20.48
2023-05-14T15:20:31.009Z,24.17
2023-05-14T15:22:58.193Z,20.15
2023-05-14T15:25:27.566Z,21.63
2023-05-14T15:27:54.824Z,25.52
2023-05-14T15:30:21.947Z,21.30
2023-05-14T15:32:49.731Z,24.73
2023-05-14T15:35:17.195Z,19.85
2023-05-14T15:37:44.982Z,19.48
2023-05-14T15:40:12.850Z,18.27
2023-05-14T15:42:44.651Z,27.25
2023-05-14T15:45:13.514Z,20.90
2023-05-14T15:47:45.354Z,17.98
2023-05-14T15:50:13.070Z,23.38
2023-05-14T15:52:40.539Z,19.52
2023-05-14T15:55:08.301Z,21.55
2023-05-14T15:57:35.777Z,21.08
2023-05-14T16:00:10.457Z,23.60
2023-05-14T16:02:39.471Z,23.08
2023-05-14T16:05:08.591Z,21.30
2023-05-14T16:07:36.832Z,29.25
2023-05-14T16:10:04.227Z,20.83
2023-05-14T16:12:31.657Z,18.63
2023-05-14T16:14:59.004Z,20.48
2023-05-14T16:17:28.598Z,15.48
2023-05-14T16:19:56.407Z,19.73
2023-05-14T16:22:24.106Z,16.10
2023-05-14T16:24:51.318Z,20.55
2023-05-14T16:27:21.668Z,18.63
2023-05-14T16:29:48.961Z,17.20
2023-05-14T16:32:16.438Z,15.07
2023-05-14T16:34:49.824Z,16.05
2023-05-14T16:37:17.893Z,17.58
2023-05-14T16:39:45.106Z,14.85
2023-05-14T16:42:12.892Z,16.73
2023-05-14T16:44:40.688Z,21.63
2023-05-14T16:47:08.192Z,23.92
2023-05-14T16:49:35.350Z,18.15
2023-05-14T16:52:02.763Z,18.40
2023-05-14T16:54:29.996Z,19.38
2023-05-14T16:56:57.023Z,20.90
2023-05-14T16:59:25.320Z,16.35
2023-05-14T17:01:52.762Z,18.83
2023-05-14T17:04:20.645Z,20.58
2023-05-14T17:06:47.893Z,16.95
2023-05-14T17:09:14.999Z,17.23
2023-05-14T17:11:42.102Z,20.08
2023-05-14T17:14:09.449Z,18.58
2023-05-14T17:16:38.896Z,20.38
2023-05-14T17:19:06.276Z,19.50
2023-05-14T17:21:33.736Z,20.02
2023-05-14T17:24:00.966Z,19.17
2023-05-14T17:26:28.366Z,19.95
2023-05-14T17:28:55.783Z,20.88
2023-05-14T17:31:23.530Z,15.85
2023-05-14T17:33:50.990Z,17.30
2023-05-14T17:36:18.253Z,19.38
2023-05-14T17:38:45.355Z,22.17
2023-05-14T17:41:12.567Z,18.65
2023-05-14T17:43:39.464Z,20.75
2023-05-14T17:46:07.600Z,19.42
2023-05-14T17:48:34.800Z,26.50
2023-05-14T17:51:01.987Z,18.60
2023-05-14T17:53:29.171Z,19.95
2023-05-14T17:55:56.356Z,18.38
2023-05-14T17:58:31.878Z,26.38
2023-05-14T18:00:59.308Z,23.15
2023-05-14T18:03:26.486Z,25.02
2023-05-14T18:05:54.046Z,23.13
2023-05-14T18:08:21.346Z,22.55
2023-05-14T18:10:51.331Z,25.35
2023-05-14T18:13:18.656Z,22.80
2023-05-14T18:15:45.742Z,22.40
2023-05-14T18:18:13.167Z,26.40
2023-05-14T18:20:40.148Z,23.38
2023-05-14T18:23:07.406Z,24.55
2023-05-14T18:25:36.122Z,24.48
2023-05-14T18:28:03.550Z,22.98
2023-05-14T18:30:30.861Z,24.95
2023-05-14T18:32:58.968Z,25.90
2023-05-14T18:35:26.515Z,28.30
2023-05-14T18:37:54.671Z,28.13
2023-05-14T18:40:21.730Z,28.27
2023-05-14T18:42:48.977Z,21.02
2023-05-14T18:45:19.293Z,28.58
2023-05-14T18:47:49.296Z,20.50
2023-05-14T18:50:16.699Z,28.70
2023-05-14T18:52:44.412Z,28.05
2023-05-14T18:55:11.770Z,24.08
2023-05-14T18:57:39.110Z,25.33
2023-05-14T19:00:07.147Z,25.60
2023-05-14T19:02:34.744Z,30.05
2023-05-14T19:05:01.925Z,31.50
2023-05-14T19:07:33.420Z,26.40
2023-05-14T19:10:00.872Z,29.77
2023-05-14T19:12:28.497Z,26.13
2023-05-14T19:14:55.722Z,31.50
2023-05-14T19:17:23.024Z,31.23
2023-05-14T19:19:50.348Z,28.75
2023-05-14T19:22:17.657Z,26.05
2023-05-14T19:24:44.929Z,23.30
2023-05-14T19:27:16.279Z,25.58
2023-05-14T19:29:46.718Z,28.00
2023-05-14T19:32:13.996Z,27.92
2023-05-14T19:34:41.233Z,27.70
2023-05-14T19:37:08.636Z,25.45
2023-05-14T19:39:36.053Z,23.58
2023-05-14T19:42:03.265Z,24.92
2023-05-14T19:44:31.309Z,28.65
2023-05-14T19:46:58.737Z,24.90
2023-05-14T19:49:26.415Z,32.97
2023-05-14T19:51:53.872Z,25.00
2023-05-14T19:54:21.141Z,28.10
2023-05-14T19:56:50.683Z,34.25
2023-05-14T19:59:17.689Z,28.08
2023-05-14T20:01:44.866Z,30.50
2023-05-14T20:04:14.207Z,26.77
2023-05-14T20:06:41.772Z,30.60
2023-05-14T20:09:11.836Z,26.65
2023-05-14T20:11:39.096Z,28.17
2023-05-14T20:14:06.354Z,28.92
2023-05-14T20:16:33.781Z,31.55
2023-05-14T20:19:00.900Z,27.83
2023-05-14T20:21:28.455Z,35.60
2023-05-14T20:23:55.786Z,35.38
2023-05-14T20:26:22.954Z,38.22
2023-05-14T20:28:50.104Z,36.35
2023-05-14T20:31:17.565Z,33.70
2023-05-14T20:33:44.723Z,32.03
2023-05-14T20:36:12.134Z,40.03
2023-05-14T20:38:41.025Z,33.83
2023-05-14T20:41:08.756Z,35.00
2023-05-14T20:43:35.893Z,32.17
2023-05-14T20:46:03.069Z,35.67
2023-05-14T20:48:30.106Z,31.60
2023-05-14T20:50:57.185Z,36.50
2023-05-14T20:53:25.574Z,34.75
2023-05-14T20:55:52.859Z,39.22
2023-05-14T20:58:20.612Z,32.20
2023-05-14T21:00:47.886Z,33.88
2023-05-14T21:03:15.276Z,36.33
2023-05-14T21:05:43.814Z,33.08
2023-05-14T21:08:11.159Z,33.63
2023-05-14T21:10:38.344Z,35.05
2023-05-14T21:13:05.365Z,35.30
2023-05-14T21:15:32.826Z,35.83
2023-05-14T21:18:00.273Z,38.63
2023-05-14T21:20:27.315Z,34.92
2023-05-14T21:22:54.472Z,40.58
2023-05-14T21:25:21.649Z,39.30
2023-05-14T21:27:48.846Z,44.75
2023-05-14T21:30:16.053Z,42.30
2023-05-14T21:32:43.175Z,40.80
2023-05-14T21:35:10.419Z,43.63
2023-05-14T21:37:39.820Z,41.45
2023-05-14T21:40:09.691Z,42.17
2023-05-14T21:42:37.288Z,40.03
2023-05-14T21:45:04.881Z,43.03
2023-05-14T21:47:32.738Z,43.28
2023-05-14T21:49:59.836Z,41.97
2023-05-14T21:52:26.995Z,42.03
2023-05-14T21:54:54.304Z,45.13
2023-05-14T21:57:21.397Z,41.75
2023-05-14T21:59:48.352Z,41.10
2023-05-14T22:02:15.621Z,39.42
2023-05-14T22:04:42.771Z,42.60
2023-05-14T22:07:09.778Z,39.28
2023-05-14T22:09:36.921Z,45.58
2023-05-14T22:12:04.290Z,41.25
2023-05-14T22:14:31.534Z,43.33
2023-05-14T22:16:58.854Z,41.83
2023-05-14T22:19:26.974Z,45.72
2023-05-14T22:21:54.755Z,49.72
2023-05-14T22:24:22.109Z,43.85
2023-05-14T22:26:49.423Z,48.63
2023-05-14T22:29:16.580Z,42.58
2023-05-14T22:31:44.053Z,42.72
2023-05-14T22:34:11.265Z,43.63
2023-05-14T22:36:38.342Z,43.58
2023-05-14T22:39:05.606Z,40.15
2023-05-14T22:41:32.863Z,43.33
2023-05-14T22:44:00.319Z,44.13
2023-05-14T22:46:27.809Z,43.33
2023-05-14T22:48:55.625Z,43.65
2023-05-14T22:51:22.690Z,45.42
2023-05-14T22:53:50.022Z,41.85
2023-05-14T22:56:17.476Z,44.33
2023-05-14T22:58:44.737Z,46.97
2023-05-14T23:01:11.772Z,44.03
2023-05-14T23:03:38.945Z,43.83
2023-05-14T23:06:06.261Z,45.88
2023-05-14T23:08:33.601Z,44.72
2023-05-14T23:11:00.787Z,49.08
2023-05-14T23:13:27.971Z,46.38
2023-05-14T23:15:55.054Z,46.10
2023-05-14T23:18:24.094Z,49.10
2023-05-14T23:20:51.205Z,44.45
2023-05-14T23:23:18.449Z,46.88
2023-05-14T23:25:45.548Z,43.58
2023-05-14T23:28:12.756Z,42.83
2023-05-14T23:30:39.729Z,51.67
2023-05-14T23:33:07.216Z,53.47
2023-05-14T23:35:35.506Z,49.38
2023-05-14T23:38:03.932Z,50.42
2023-05-14T23:40:31.905Z,51.80
2023-05-14T23:43:00.606Z,50.20
2023-05-14T23:45:28.416Z,54.00
2023-05-14T23:47:57.374Z,56.75
2023-05-14T23:50:25.205Z,52.30
2023-05-14T23:52:53.511Z,55.88
2023-05-14T23:55:20.914Z,47.50
2023-05-14T23:57:51.371Z,59.15
